メインページ
METAR-TAF:

METAR-TAF

空港 :

アテネ国際空港

アテネ, ギリシャ

緯度: 37-56N, 経度: 023-56E, 海抜: 94m

現時点の気象観測

当レポートは25分前の05:20(UTC)に作成
北/北東の風 9kt
気温 16°C
湿度 77%
気圧 1017 hPa
視程10km以上
高度3000ftの雲はほとんどない

METAR: LGAV 220520Z 03009KT 9999 FEW030 16/12 Q1017 NOSIG

時間: 08:45 (05:45 UTC)

予報

当レポートは45分前の05:00(UTC)に作成
予報は22日の 06時(UTC)から 23日の 06時(UTC)まで有効
北東の風 15kt
視程10km以上
高度2500ftの雲はほとんどない
高度7000ftの雲は散在している
確率 30% :
22日の 15時(UTC)から 23日の 06時(UTC)まで一時的に
視程: 5000m
高度1000ftの雲は散在している
高度2000ftの千切れ雲あり

TAF: LGAV 220500Z 2206/2306 04015KT 9999 FEW025 SCT070 PROB30 TEMPO 2215/2306 5000 RA SCT010 BKN020

4,000以上の空港の気象観測と天気予報(METAR報とTAF報)

利用可能な観測所は地図上に黄色い丸と赤い丸で示す。

丸の上にカーソルを重ねると観測所名を参照できる。

次にクリックすると気象観測と天気予報を参照できる。

マップの切り替え:黒色「×」印の緑ボタンをクリックして拡大、「-」印の緑ボタンをクリックして縮小、緑色の三角印をクリックして隣りの地図に切り替え


METAR-TAF: